Time;durP1;ratioP1;P1;durP2;ratioP2;P2;SDS_P1;SDS_P2;PMS_P1;PMS_P2;Temp;Humidity;BMP_temperature;BMP_pressure;BME280_temperature;BME280_humidity;BME280_pressure;Samples;Min_cycle;Max_cycle;Signal;HPM_P1;HPM_P2
2023/01/03 00:01:44;;;;;;;;;;;;;;;9.29;73.11;102539.28;5112407;28;19924;-85
2023/01/03 00:04:09;;;;;;;;;;;;;;;9.30;72.76;102548.91;5101130;28;19923;-84
2023/01/03 00:06:36;;;;;;;;;;;;;;;9.31;72.64;102547.19;5095340;28;19912;-85
2023/01/03 00:09:03;;;;;;;;;;;;;;;9.29;72.83;102549.69;5075397;28;19923;-84
2023/01/03 00:14:23;;;;;;;;;;;;;;;9.28;72.93;102541.72;5106681;28;19977;-84
2023/01/03 00:16:50;;;;;;;;;;;;;;;9.25;72.90;102538.84;5091889;28;20510;-84
2023/01/03 00:19:15;;;;;;;;;;;;;;;9.24;73.13;102550.06;5108066;28;20377;-84
2023/01/03 00:21:41;;;;;;;;;;;;;;;9.26;72.93;102543.28;5092634;28;20029;-84
2023/01/03 00:24:07;;;;;;;;;;;;;;;9.24;72.80;102540.53;5107881;28;20285;-83
2023/01/03 00:26:32;;;;;;;;;;;;;;;9.23;72.78;102536.13;5102581;28;19959;-85
2023/01/03 00:28:58;;;;;;;;;;;;;;;9.24;72.92;102531.81;5108551;28;20132;-85
2023/01/03 00:31:23;;;;;;;;;;;;;;;9.25;72.80;102538.84;5092756;28;19916;-84
2023/01/03 00:33:49;;;;;;;;;;;;;;;9.24;72.82;102529.22;5092319;28;19924;-85
2023/01/03 00:36:14;;;;;;;;;;;;;;;9.22;73.01;102534.28;5107979;28;19924;-85
2023/01/03 00:38:39;;;;;;;;;;;;;;;9.23;72.82;102533.53;5092743;28;19923;-85
2023/01/03 00:41:06;;;;;;;;;;;;;;;9.26;72.90;102531.16;5091839;28;19916;-85
2023/01/03 00:43:33;;;;;;;;;;;;;;;9.26;72.82;102530.25;5092540;28;20043;-85
2023/01/03 00:45:59;;;;;;;;;;;;;;;9.21;73.09;102518.50;5048202;28;19955;-85
2023/01/03 00:48:24;;;;;;;;;;;;;;;9.22;72.93;102516.03;5102495;28;19967;-85
2023/01/03 00:50:53;;;;;;;;;;;;;;;9.23;73.00;102511.72;5080892;28;19923;-85
2023/01/03 00:53:19;;;;;;;;;;;;;;;9.26;72.93;102518.13;5091491;28;19923;-85
2023/01/03 00:55:44;;;;;;;;;;;;;;;9.24;72.86;102509.25;5092668;28;19924;-85
2023/01/03 00:58:11;;;;;;;;;;;;;;;9.30;72.73;102508.88;5107493;28;19927;-85
2023/01/03 01:00:36;;;;;;;;;;;;;;;9.23;72.76;102498.69;5092152;28;19916;-85
2023/01/03 01:03:02;;;;;;;;;;;;;;;9.19;73.19;102505.34;5106841;28;19916;-85
2023/01/03 01:05:27;;;;;;;;;;;;;;;9.19;73.28;102494.03;5092537;28;19916;-85
2023/01/03 01:07:53;;;;;;;;;;;;;;;9.24;72.72;102487.50;5107459;28;20300;-85
2023/01/03 01:10:19;;;;;;;;;;;;;;;9.20;72.73;102483.69;5090067;28;19920;-85
2023/01/03 01:12:45;;;;;;;;;;;;;;;9.22;72.69;102482.13;5100813;28;19944;-85
2023/01/03 01:15:11;;;;;;;;;;;;;;;9.22;72.73;102479.53;5107438;28;19927;-84
2023/01/03 01:17:36;;;;;;;;;;;;;;;9.22;72.76;102479.53;5107396;28;19973;-84
2023/01/03 01:20:02;;;;;;;;;;;;;;;9.18;72.94;102474.84;5107645;28;19920;-84
2023/01/03 01:22:27;;;;;;;;;;;;;;;9.15;73.15;102472.88;5094949;28;19974;-84
2023/01/03 01:24:52;;;;;;;;;;;;;;;9.17;73.07;102475.63;5100947;28;19993;-84
2023/01/03 01:27:18;;;;;;;;;;;;;;;9.16;73.13;102479.00;5066422;28;20317;-84
2023/01/03 01:29:44;;;;;;;;;;;;;;;9.15;73.09;102471.97;5060019;28;20416;-85
2023/01/03 01:32:09;;;;;;;;;;;;;;;9.17;72.92;102465.19;5106991;28;20312;-85
2023/01/03 01:34:35;;;;;;;;;;;;;;;9.15;73.06;102464.16;5090927;28;19923;-85
2023/01/03 01:37:00;;;;;;;;;;;;;;;9.16;72.77;102460.75;5091380;28;20411;-85
2023/01/03 01:39:26;;;;;;;;;;;;;;;9.21;72.71;102458.53;5076809;28;20282;-85
2023/01/03 01:44:46;;;;;;;;;;;;;;;9.15;72.80;102457.25;5100744;28;19969;-84
2023/01/03 01:47:13;;;;;;;;;;;;;;;9.14;72.74;102458.03;5069932;28;19977;-84
2023/01/03 01:49:39;;;;;;;;;;;;;;;9.19;72.68;102457.53;5107382;28;20412;-84
2023/01/03 01:52:05;;;;;;;;;;;;;;;9.18;72.90;102456.59;5106382;28;20438;-84
2023/01/03 01:54:30;;;;;;;;;;;;;;;9.17;73.05;102455.69;5080832;28;19924;-83
2023/01/03 01:56:55;;;;;;;;;;;;;;;9.14;72.96;102450.22;5086557;28;19937;-84
2023/01/03 01:59:21;;;;;;;;;;;;;;;9.17;73.02;102449.56;5105980;28;20377;-84
2023/01/03 02:01:47;;;;;;;;;;;;;;;9.20;72.81;102449.81;5087852;28;20270;-84
2023/01/03 02:04:21;;;;;;;;;;;;;;;9.19;72.46;102447.09;5106119;28;20416;-84
2023/01/03 02:06:46;;;;;;;;;;;;;;;9.16;72.63;102445.13;5101795;28;19956;-84
2023/01/03 02:09:11;;;;;;;;;;;;;;;9.13;72.59;102435.34;5081239;28;20005;-84
2023/01/03 02:11:49;;;;;;;;;;;;;;;9.11;72.70;102434.28;5095540;28;20415;-84
2023/01/03 02:14:21;;;;;;;;;;;;;;;9.09;72.75;102433.25;5106725;28;20325;-84
2023/01/03 02:17:01;;;;;;;;;;;;;;;9.14;72.55;102444.06;5064117;28;20432;-84
2023/01/03 02:19:29;;;;;;;;;;;;;;;9.13;72.99;102437.03;5086834;28;20381;-84
2023/01/03 02:22:10;;;;;;;;;;;;;;;9.12;72.73;102443.03;5090688;28;20393;-84
2023/01/03 02:24:48;;;;;;;;;;;;;;;9.09;72.68;102432.34;5077147;28;20078;-84
2023/01/03 02:27:17;;;;;;;;;;;;;;;9.11;72.87;102439.50;5105978;28;19927;-83
2023/01/03 02:29:45;;;;;;;;;;;;;;;9.09;72.93;102434.94;5064777;28;20291;-86
2023/01/03 02:32:26;;;;;;;;;;;;;;;9.09;72.71;102433.25;5090752;28;20385;-84
2023/01/03 02:35:04;;;;;;;;;;;;;;;9.10;72.97;102436.75;5092196;28;20580;-84
2023/01/03 02:37:45;;;;;;;;;;;;;;;9.10;72.76;102428.94;5093997;28;20665;-84
2023/01/03 02:40:14;;;;;;;;;;;;;;;9.10;72.61;102431.56;5107188;28;19916;-84
2023/01/03 02:43:04;;;;;;;;;;;;;;;9.09;72.72;102420.22;5090963;28;19967;-84
2023/01/03 02:45:45;;;;;;;;;;;;;;;9.08;72.65;102421.00;5090791;28;19981;-84
2023/01/03 02:48:12;;;;;;;;;;;;;;;9.09;72.79;102419.31;5091126;28;19920;-85
2023/01/03 02:50:40;;;;;;;;;;;;;;;9.08;72.71;102422.69;5103618;28;19916;-83
2023/01/03 02:53:08;;;;;;;;;;;;;;;9.07;72.57;102420.88;5108336;28;19920;-84
2023/01/03 02:55:33;;;;;;;;;;;;;;;9.08;72.89;102420.06;5118556;28;20007;-84
2023/01/03 02:58:00;;;;;;;;;;;;;;;9.10;72.55;102423.72;5114668;28;19963;-84
2023/01/03 03:00:25;;;;;;;;;;;;;;;9.06;73.02;102421.63;5107443;28;20008;-84
2023/01/03 03:02:52;;;;;;;;;;;;;;;9.03;72.83;102424.91;5092406;28;20006;-84
2023/01/03 03:05:22;;;;;;;;;;;;;;;9.08;72.71;102421.00;5102404;28;19920;-84
2023/01/03 03:07:47;;;;;;;;;;;;;;;9.03;72.99;102424.00;5065425;28;19920;-84
2023/01/03 03:13:24;;;;;;;;;;;;;;;9.00;73.05;102427.25;5019565;28;19917;-84
2023/01/03 03:15:54;;;;;;;;;;;;;;;9.02;72.92;102433.50;5010125;28;19977;-86
2023/01/03 03:18:21;;;;;;;;;;;;;;;9.05;72.73;102430.25;5034522;28;20518;-86
2023/01/03 03:26:36;;;;;;;;;;;;;;;9.03;72.52;102427.50;5107193;28;19997;-85
2023/01/03 03:29:05;;;;;;;;;;;;;;;9.04;72.50;102421.53;5109657;28;19927;-86
2023/01/03 03:31:32;;;;;;;;;;;;;;;9.04;72.52;102429.34;5093082;28;20469;-84
2023/01/03 03:34:00;;;;;;;;;;;;;;;9.05;72.52;102427.66;5109710;28;19916;-84
2023/01/03 03:36:38;;;;;;;;;;;;;;;9.04;72.47;102431.00;5094134;28;20014;-86
2023/01/03 03:39:03;;;;;;;;;;;;;;;9.01;72.79;102426.47;5093717;28;19999;-86
2023/01/03 03:47:20;;;;;;;;;;;;;;;8.96;72.86;102418.25;5106998;28;19927;-86
2023/01/03 03:49:45;;;;;;;;;;;;;;;8.98;72.90;102422.69;5082281;28;20408;-86
2023/01/03 03:52:15;;;;;;;;;;;;;;;8.96;73.07;102419.94;5091417;28;19967;-85
2023/01/03 03:54:41;;;;;;;;;;;;;;;9.01;72.84;102422.94;5109509;28;19916;-86
2023/01/03 03:57:12;;;;;;;;;;;;;;;8.99;72.80;102422.81;5101184;28;20007;-85
2023/01/03 03:59:38;;;;;;;;;;;;;;;8.97;72.87;102413.94;5084708;28;20389;-86
2023/01/03 04:02:04;;;;;;;;;;;;;;;8.97;72.74;102416.53;5053294;28;19926;-85
2023/01/03 04:04:32;;;;;;;;;;;;;;;8.99;72.56;102416.69;5098675;28;20003;-86
2023/01/03 04:06:57;;;;;;;;;;;;;;;8.98;72.81;102414.88;5094135;28;20511;-86
2023/01/03 04:09:22;;;;;;;;;;;;;;;8.98;72.59;102415.78;5107032;28;20012;-85
2023/01/03 04:11:48;;;;;;;;;;;;;;;8.98;72.85;102417.47;5103389;28;20371;-85
2023/01/03 04:14:13;;;;;;;;;;;;;;;8.95;72.63;102419.03;5094240;28;20534;-84
2023/01/03 04:16:39;;;;;;;;;;;;;;;8.92;72.72;102420.47;5091831;28;19924;-84
2023/01/03 04:19:05;;;;;;;;;;;;;;;8.93;72.62;102423.22;5073054;28;20019;-86
2023/01/03 04:21:31;;;;;;;;;;;;;;;8.93;72.86;102425.81;5092315;28;20374;-85
2023/01/03 04:23:56;;;;;;;;;;;;;;;8.90;72.84;102428.13;5074170;28;19927;-86
2023/01/03 04:26:22;;;;;;;;;;;;;;;8.92;72.71;102426.56;5106589;28;19954;-86
2023/01/03 04:28:48;;;;;;;;;;;;;;;8.92;72.49;102430.88;5092846;28;19943;-85
2023/01/03 04:31:13;;;;;;;;;;;;;;;8.92;72.46;102434.38;5101861;28;20386;-85
2023/01/03 04:33:39;;;;;;;;;;;;;;;8.88;72.95;102427.09;5100807;28;20053;-85
2023/01/03 04:36:04;;;;;;;;;;;;;;;8.92;72.57;102431.78;5092518;28;19931;-85
2023/01/03 04:38:30;;;;;;;;;;;;;;;8.91;72.66;102427.38;5109074;28;19916;-85
2023/01/03 04:40:55;;;;;;;;;;;;;;;8.89;72.75;102428.94;5092503;28;19920;-85
2023/01/03 04:46:04;;;;;;;;;;;;;;;8.89;72.62;102433.19;5093038;28;20020;-86
2023/01/03 04:48:30;;;;;;;;;;;;;;;8.92;72.68;102436.09;5089915;28;19967;-84
2023/01/03 04:50:56;;;;;;;;;;;;;;;8.89;72.66;102438.41;5108129;28;20400;-84
2023/01/03 04:53:22;;;;;;;;;;;;;;;8.87;72.71;102437.34;5108414;28;19916;-84
2023/01/03 04:55:48;;;;;;;;;;;;;;;8.86;72.97;102438.16;5108335;28;19948;-85
2023/01/03 04:58:13;;;;;;;;;;;;;;;8.88;72.67;102442.72;5107865;28;20298;-85
2023/01/03 05:00:39;;;;;;;;;;;;;;;8.87;72.44;102443.50;5092504;28;19939;-85
2023/01/03 05:03:04;;;;;;;;;;;;;;;8.90;72.67;102440.25;5087921;28;20032;-84
2023/01/03 05:05:30;;;;;;;;;;;;;;;8.89;72.81;102441.94;5092603;28;19916;-84
2023/01/03 05:07:55;;;;;;;;;;;;;;;8.85;72.85;102444.16;5107706;28;20429;-84
2023/01/03 05:10:20;;;;;;;;;;;;;;;8.86;72.75;102443.38;5092393;28;20331;-84
2023/01/03 05:12:58;;;;;;;;;;;;;;;8.88;72.63;102447.94;5108047;28;20563;-85
2023/01/03 05:15:26;;;;;;;;;;;;;;;8.85;72.66;102439.84;5092206;28;19997;-85
2023/01/03 05:17:52;;;;;;;;;;;;;;;8.84;72.83;102450.13;5084726;28;20374;-84
2023/01/03 05:25:48;;;;;;;;;;;;;;;8.87;72.67;102453.00;5070524;28;19931;-83
2023/01/03 05:28:14;;;;;;;;;;;;;;;8.85;72.82;102454.59;5082239;28;19955;-83
2023/01/03 05:30:39;;;;;;;;;;;;;;;8.84;72.63;102451.03;5064580;28;19967;-83
2023/01/03 05:33:04;;;;;;;;;;;;;;;8.82;72.83;102455.19;5086287;28;19931;-84
2023/01/03 05:35:32;;;;;;;;;;;;;;;8.83;72.76;102450.94;5076732;28;20217;-83
2023/01/03 05:37:57;;;;;;;;;;;;;;;8.85;72.69;102455.50;5090653;28;20007;-83
2023/01/03 05:40:23;;;;;;;;;;;;;;;8.79;72.95;102460.16;5086737;28;20286;-83
2023/01/03 05:42:48;;;;;;;;;;;;;;;8.84;72.88;102457.94;5077913;28;20002;-83
2023/01/03 05:45:14;;;;;;;;;;;;;;;8.81;72.70;102463.81;5091828;28;20467;-82
2023/01/03 05:47:39;;;;;;;;;;;;;;;8.83;72.73;102461.34;5081099;28;19924;-83
2023/01/03 05:50:05;;;;;;;;;;;;;;;8.80;72.81;102450.63;5098423;28;19989;-84
2023/01/03 05:52:30;;;;;;;;;;;;;;;8.81;72.58;102458.59;5081908;28;20404;-83
2023/01/03 05:54:56;;;;;;;;;;;;;;;8.81;72.52;102460.28;5072589;28;19932;-83
2023/01/03 05:57:21;;;;;;;;;;;;;;;8.82;72.64;102455.19;5089175;28;19916;-83
2023/01/03 05:59:46;;;;;;;;;;;;;;;8.79;72.53;102467.06;5071787;28;19921;-83
2023/01/03 06:02:12;;;;;;;;;;;;;;;8.80;72.81;102461.06;5104030;28;20435;-82
2023/01/03 06:04:37;;;;;;;;;;;;;;;8.82;72.38;102457.81;5081550;28;20294;-83
2023/01/03 06:07:03;;;;;;;;;;;;;;;8.80;72.50;102463.66;5090340;28;19977;-83
2023/01/03 06:09:28;;;;;;;;;;;;;;;8.77;72.47;102460.00;5085294;28;20328;-82
2023/01/03 06:11:53;;;;;;;;;;;;;;;8.77;72.72;102456.50;5090195;28;19926;-82
2023/01/03 06:14:19;;;;;;;;;;;;;;;8.75;72.46;102463.25;5072083;28;20320;-82
2023/01/03 06:19:28;;;;;;;;;;;;;;;8.79;72.66;102460.16;5078446;28;19923;-82
2023/01/03 06:21:53;;;;;;;;;;;;;;;8.80;72.39;102463.66;5090836;28;19920;-83
2023/01/03 06:24:19;;;;;;;;;;;;;;;8.77;72.55;102467.81;5093022;28;19920;-85
2023/01/03 06:26:44;;;;;;;;;;;;;;;8.76;72.70;102468.63;5077219;28;20385;-85
2023/01/03 06:29:10;;;;;;;;;;;;;;;8.75;72.72;102476.28;5092117;28;20386;-84
2023/01/03 06:31:35;;;;;;;;;;;;;;;8.72;72.69;102476.94;5079615;28;20008;-84
2023/01/03 06:34:01;;;;;;;;;;;;;;;8.74;72.54;102464.97;5067298;28;20286;-82
2023/01/03 06:36:27;;;;;;;;;;;;;;;8.73;72.76;102465.72;5106323;28;19924;-82
2023/01/03 06:38:52;;;;;;;;;;;;;;;8.73;72.58;102457.91;5074874;28;19920;-83
2023/01/03 06:41:18;;;;;;;;;;;;;;;8.74;72.57;102462.34;5100736;28;19935;-83
2023/01/03 06:43:43;;;;;;;;;;;;;;;8.73;72.66;102467.44;5064070;28;20011;-83
2023/01/03 06:54:22;;;;;;;;;;;;;;;8.70;72.88;102465.47;5081816;28;19967;-82
2023/01/03 06:56:48;;;;;;;;;;;;;;;8.70;72.91;102461.91;5096290;28;20312;-82
2023/01/03 06:59:13;;;;;;;;;;;;;;;8.69;72.83;102457.50;5109359;28;19965;-83
2023/01/03 07:01:39;;;;;;;;;;;;;;;8.68;72.58;102464.41;5110536;28;20320;-84
2023/01/03 07:04:04;;;;;;;;;;;;;;;8.69;72.93;102458.41;5107238;28;20434;-83
2023/01/03 07:06:30;;;;;;;;;;;;;;;8.66;72.90;102463.38;5084079;28;20381;-83
2023/01/03 07:08:55;;;;;;;;;;;;;;;8.68;72.72;102464.41;5094193;28;19951;-85
2023/01/03 07:11:23;;;;;;;;;;;;;;;8.73;72.44;102467.44;5092837;28;19920;-86
2023/01/03 07:13:58;;;;;;;;;;;;;;;8.72;72.56;102465.56;5080420;28;20023;-85
2023/01/03 07:16:28;;;;;;;;;;;;;;;8.70;72.64;102468.06;5105587;28;19927;-85
2023/01/03 07:18:53;;;;;;;;;;;;;;;8.69;72.63;102476.66;5102107;28;19921;-86
2023/01/03 07:21:19;;;;;;;;;;;;;;;8.69;72.85;102471.44;5109129;28;20349;-83
2023/01/03 07:23:44;;;;;;;;;;;;;;;8.69;72.73;102470.53;5069039;28;19923;-86
2023/01/03 07:26:10;;;;;;;;;;;;;;;8.69;72.59;102468.84;5081806;28;19943;-86
2023/01/03 07:28:35;;;;;;;;;;;;;;;8.70;72.77;102474.94;5103465;28;19953;-86
2023/01/03 07:31:02;;;;;;;;;;;;;;;8.77;72.59;102474.72;5067470;28;19920;-86
2023/01/03 07:33:27;;;;;;;;;;;;;;;8.72;72.70;102471.72;5103518;28;19924;-84
2023/01/03 07:35:58;;;;;;;;;;;;;;;8.74;72.81;102469.22;5063702;28;19920;-83
2023/01/03 07:38:23;;;;;;;;;;;;;;;8.73;72.67;102468.31;5079664;28;19920;-84
2023/01/03 07:40:48;;;;;;;;;;;;;;;8.73;72.64;102467.44;5075161;28;19931;-83
2023/01/03 07:45:58;;;;;;;;;;;;;;;8.77;72.85;102467.81;5104157;28;20408;-84
2023/01/03 07:48:23;;;;;;;;;;;;;;;8.79;72.76;102457.53;5078594;28;19916;-85
2023/01/03 07:50:49;;;;;;;;;;;;;;;8.79;72.75;102467.06;5066480;28;20342;-85
2023/01/03 07:53:17;;;;;;;;;;;;;;;8.80;72.70;102458.44;5108410;28;20409;-85
2023/01/03 07:55:44;;;;;;;;;;;;;;;8.80;72.83;102469.78;5084608;28;19983;-85
2023/01/03 07:58:10;;;;;;;;;;;;;;;8.81;72.82;102466.41;5068711;28;19927;-85
2023/01/03 08:00:35;;;;;;;;;;;;;;;8.81;72.99;102476.84;5089172;28;19916;-85
2023/01/03 08:03:00;;;;;;;;;;;;;;;8.87;72.64;102481.66;5085795;28;19916;-86
2023/01/03 08:05:26;;;;;;;;;;;;;;;8.86;72.84;102480.75;5101194;28;20290;-86
2023/01/03 08:07:51;;;;;;;;;;;;;;;8.83;72.79;102479.59;5085300;28;19916;-86
2023/01/03 08:13:16;;;;;;;;;;;;;;;8.88;72.67;102473.06;5084976;28;20022;-86
2023/01/03 08:15:45;;;;;;;;;;;;;;;8.87;72.84;102474.78;5093017;28;19955;-85
2023/01/03 08:18:11;;;;;;;;;;;;;;;8.90;72.53;102471.50;5092474;28;20007;-84
2023/01/03 08:20:37;;;;;;;;;;;;;;;8.89;72.86;102465.41;5092495;28;20007;-84
2023/01/03 08:23:02;;;;;;;;;;;;;;;8.90;72.83;102467.22;5092247;28;20435;-85
2023/01/03 08:25:27;;;;;;;;;;;;;;;8.90;72.92;102464.59;5074502;28;19984;-85
2023/01/03 08:27:56;;;;;;;;;;;;;;;8.93;72.61;102464.91;5092215;28;20358;-85
2023/01/03 08:30:21;;;;;;;;;;;;;;;8.94;72.41;102463.19;5092113;28;19939;-85
2023/01/03 08:32:46;;;;;;;;;;;;;;;8.94;72.58;102460.59;5092335;28;20373;-84
2023/01/03 08:35:12;;;;;;;;;;;;;;;8.94;72.64;102452.78;5083098;28;19951;-84
2023/01/03 08:37:37;;;;;;;;;;;;;;;8.95;72.87;102454.59;5090429;28;19946;-85
2023/01/03 08:40:03;;;;;;;;;;;;;;;8.91;72.47;102456.03;5090488;28;20641;-86
2023/01/03 08:42:29;;;;;;;;;;;;;;;8.94;72.86;102453.69;5094857;28;19924;-86
2023/01/03 08:44:56;;;;;;;;;;;;;;;8.94;72.68;102448.47;5101528;28;20025;-87
2023/01/03 08:47:21;;;;;;;;;;;;;;;8.92;72.67;102447.41;5086459;28;20474;-86
2023/01/03 08:49:47;;;;;;;;;;;;;;;8.96;72.91;102449.50;5060263;28;20007;-86
2023/01/03 08:52:12;;;;;;;;;;;;;;;9.03;72.66;102445.75;5066963;28;20408;-87
2023/01/03 08:54:38;;;;;;;;;;;;;;;9.04;72.52;102437.16;5107846;28;20389;-88
2023/01/03 08:57:03;;;;;;;;;;;;;;;9.06;72.56;102437.28;5094376;28;19920;-86
2023/01/03 08:59:29;;;;;;;;;;;;;;;9.04;72.62;102431.94;5109959;28;19920;-83
2023/01/03 09:02:00;;;;;;;;;;;;;;;9.06;72.73;102433.00;5094380;28;19953;-87
2023/01/03 09:04:26;;;;;;;;;;;;;;;9.04;73.02;102426.75;5092819;28;19924;-86
2023/01/03 09:06:51;;;;;;;;;;;;;;;9.07;72.57;102420.88;5108034;28;19923;-85
2023/01/03 09:09:17;;;;;;;;;;;;;;;9.11;72.94;102420.38;5089812;28;19920;-86
2023/01/03 09:11:42;;;;;;;;;;;;;;;9.10;72.86;102421.13;5098980;28;19982;-87
2023/01/03 09:14:07;;;;;;;;;;;;;;;9.13;72.82;102413.59;5092225;28;20083;-87
2023/01/03 09:16:33;;;;;;;;;;;;;;;9.14;72.86;102408.53;5080328;28;20341;-85
2023/01/03 09:18:58;;;;;;;;;;;;;;;9.15;72.34;102402.50;5091542;28;20478;-87
2023/01/03 09:21:24;;;;;;;;;;;;;;;9.17;72.64;102394.81;5089301;28;19920;-85
2023/01/03 09:23:49;;;;;;;;;;;;;;;9.17;72.75;102395.72;5107727;28;20310;-87
2023/01/03 09:26:15;;;;;;;;;;;;;;;9.20;72.65;102392.47;5107221;28;20381;-86
2023/01/03 09:28:40;;;;;;;;;;;;;;;9.21;73.05;102385.56;5090932;28;19920;-86
2023/01/03 09:31:06;;;;;;;;;;;;;;;9.26;72.53;102384.28;5073648;28;20294;-86
2023/01/03 09:33:31;;;;;;;;;;;;;;;9.23;73.30;102374.50;5084840;28;20355;-84
2023/01/03 09:35:57;;;;;;;;;;;;;;;9.26;73.34;102371.22;5101305;28;19916;-86
2023/01/03 09:38:22;;;;;;;;;;;;;;;9.26;73.08;102371.22;5107831;28;19962;-85
2023/01/03 09:40:55;;;;;;;;;;;;;;;9.29;73.45;102367.19;5091878;28;20302;-84
2023/01/03 09:43:21;;;;;;;;;;;;;;;9.29;73.45;102371.47;5096865;28;19921;-87
2023/01/03 09:45:57;;;;;;;;;;;;;;;9.34;73.17;102370.19;5090112;28;19916;-88
2023/01/03 09:48:49;;;;;;;;;;;;;;;9.30;74.12;102369.00;5107229;28;19916;-86
2023/01/03 10:05:35;;;;;;;;;;;;;;;9.45;73.41;102332.88;5090851;28;19927;-87
2023/01/03 10:08:07;;;;;;;;;;;;;;;9.43;74.42;102330.94;5106944;28;19939;-86
2023/01/03 10:10:32;;;;;;;;;;;;;;;9.45;74.00;102316.34;5083757;28;19916;-85
2023/01/03 10:13:13;;;;;;;;;;;;;;;9.51;73.67;102309.03;5090306;28;19999;-86
2023/01/03 10:15:46;;;;;;;;;;;;;;;9.50;74.01;102308.13;5091127;28;20297;-87
2023/01/03 10:18:30;;;;;;;;;;;;;;;9.56;74.11;102306.00;5105224;28;19919;-86
2023/01/03 10:21:00;;;;;;;;;;;;;;;9.60;73.88;102303.66;5067252;28;19931;-86
2023/01/03 10:23:25;;;;;;;;;;;;;;;9.62;73.47;102297.78;5098303;28;19920;-86
2023/01/03 10:25:51;;;;;;;;;;;;;;;9.66;73.96;102294.63;5066699;28;19912;-86
2023/01/03 10:28:17;;;;;;;;;;;;;;;9.65;74.57;102292.81;5106301;28;20385;-86
2023/01/03 10:30:43;;;;;;;;;;;;;;;9.66;74.00;102276.38;5090378;28;19944;-86
2023/01/03 10:33:27;;;;;;;;;;;;;;;9.70;74.39;102277.56;5084051;28;20691;-85
2023/01/03 10:35:52;;;;;;;;;;;;;;;9.70;74.24;102283.66;5074671;28;19927;-86
2023/01/03 10:38:21;;;;;;;;;;;;;;;9.72;74.48;102265.53;5106312;28;19916;-87
2023/01/03 10:40:47;;;;;;;;;;;;;;;9.69;75.00;102271.41;5101333;28;19928;-85
2023/01/03 10:43:15;;;;;;;;;;;;;;;9.70;75.36;102262.81;5071013;28;19927;-85
2023/01/03 10:45:54;;;;;;;;;;;;;;;9.66;75.63;102265.94;5090318;28;20408;-87
2023/01/03 10:48:20;;;;;;;;;;;;;;;9.68;76.46;102256.53;5095355;28;20574;-87
2023/01/03 10:50:46;;;;;;;;;;;;;;;9.70;75.85;102260.19;5060484;28;19989;-85
2023/01/03 10:53:11;;;;;;;;;;;;;;;9.70;77.14;102252.38;5083317;28;19939;-87
2023/01/03 10:55:42;;;;;;;;;;;;;;;9.71;76.83;102248.97;5106751;28;19962;-88
2023/01/03 10:58:24;;;;;;;;;;;;;;;9.74;76.60;102245.72;5101287;28;19952;-87
2023/01/03 11:00:52;;;;;;;;;;;;;;;9.75;77.74;102240.59;5077808;28;20055;-87
2023/01/03 11:03:21;;;;;;;;;;;;;;;9.74;76.98;102236.19;5054685;28;20425;-87
2023/01/03 11:05:48;;;;;;;;;;;;;;;9.75;77.35;102235.38;5089453;28;19923;-88
2023/01/03 11:08:13;;;;;;;;;;;;;;;9.77;78.75;102228.59;5107022;28;19920;-87
2023/01/03 11:11:11;;;;;;;;;;;;;;;9.76;78.72;102226.78;5106518;28;20073;-87
2023/01/03 11:13:39;;;;;;;;;;;;;;;9.76;79.24;102231.09;5067688;28;19924;-88
2023/01/03 11:16:12;;;;;;;;;;;;;;;9.80;78.98;102230.56;5090513;28;19959;-88
2023/01/03 11:18:39;;;;;;;;;;;;;;;9.77;79.18;102225.06;5090868;28;20420;-88
2023/01/03 11:21:08;;;;;;;;;;;;;;;9.76;79.70;102226.78;5089065;28;19920;-87
2023/01/03 11:23:52;;;;;;;;;;;;;;;9.78;79.51;102224.31;5106185;28;19923;-88
2023/01/03 11:26:20;;;;;;;;;;;;;;;9.80;80.02;102220.13;5090427;28;19973;-87
2023/01/03 11:28:49;;;;;;;;;;;;;;;9.85;79.27;102223.09;5105280;28;19927;-85
2023/01/03 11:31:30;;;;;;;;;;;;;;;9.85;79.70;102217.88;5049387;28;20446;-88
2023/01/03 11:33:56;;;;;;;;;;;;;;;9.84;78.97;102214.38;5083010;28;19927;-87
2023/01/03 11:36:21;;;;;;;;;;;;;;;9.89;79.43;102212.13;5091496;28;19924;-88
2023/01/03 11:39:05;;;;;;;;;;;;;;;9.90;79.35;102207.00;5109928;28;19927;-87
2023/01/03 11:41:41;;;;;;;;;;;;;;;9.90;79.18;102206.09;5094069;28;19952;-86
2023/01/03 11:44:07;;;;;;;;;;;;;;;9.95;79.76;102208.28;5109845;28;19920;-86
2023/01/03 11:46:52;;;;;;;;;;;;;;;9.95;79.90;102204.78;5093860;28;19923;-86
2023/01/03 11:49:25;;;;;;;;;;;;;;;9.93;79.39;102199.44;5093266;28;19922;-87
2023/01/03 11:52:08;;;;;;;;;;;;;;;9.97;79.49;102200.59;5095696;28;20326;-87
2023/01/03 11:54:34;;;;;;;;;;;;;;;10.00;79.92;102195.59;5094044;28;20529;-86
2023/01/03 11:57:02;;;;;;;;;;;;;;;10.03;80.09;102193.22;5093580;28;19965;-87
2023/01/03 11:59:46;;;;;;;;;;;;;;;10.05;79.19;102190.72;5092603;28;19920;-86
2023/01/03 12:02:30;;;;;;;;;;;;;;;10.07;78.98;102187.44;5067814;28;19912;-86
2023/01/03 12:05:01;;;;;;;;;;;;;;;10.09;79.50;102191.09;5093215;28;19920;-86
2023/01/03 12:07:47;;;;;;;;;;;;;;;10.10;79.93;102184.19;5093644;28;19992;-86
2023/01/03 12:10:12;;;;;;;;;;;;;;;10.12;79.97;102182.63;5095738;28;19923;-86
2023/01/03 12:12:44;;;;;;;;;;;;;;;10.13;79.87;102181.81;5093152;28;20180;-86
2023/01/03 12:15:21;;;;;;;;;;;;;;;10.14;79.58;102184.56;5092238;28;19969;-86
2023/01/03 12:17:52;;;;;;;;;;;;;;;10.21;80.08;102179.81;5092900;28;19927;-86
2023/01/03 12:20:25;;;;;;;;;;;;;;;10.20;79.47;102186.72;5109444;28;19919;-87
2023/01/03 12:22:50;;;;;;;;;;;;;;;10.22;78.96;102189.44;5108976;28;19947;-86
2023/01/03 12:25:25;;;;;;;;;;;;;;;10.22;79.25;102179.91;5109467;28;20336;-86
2023/01/03 12:27:52;;;;;;;;;;;;;;;10.24;80.17;102170.50;5092810;28;19920;-86
2023/01/03 12:30:35;;;;;;;;;;;;;;;10.28;80.03;102183.00;5109232;28;19918;-86
2023/01/03 12:33:04;;;;;;;;;;;;;;;10.26;80.39;102170.63;5066622;28;20375;-87
2023/01/03 12:35:32;;;;;;;;;;;;;;;10.30;80.53;102170.09;5090915;28;20400;-87
2023/01/03 12:37:59;;;;;;;;;;;;;;;10.28;79.95;102169.94;5109030;28;19931;-87
2023/01/03 12:40:24;;;;;;;;;;;;;;;10.35;78.81;102173.97;5090136;28;19924;-86
2023/01/03 12:43:03;;;;;;;;;;;;;;;10.37;79.78;102167.16;5068306;28;19954;-86
2023/01/03 12:45:37;;;;;;;;;;;;;;;10.33;80.13;102166.03;5071006;28;19942;-86
2023/01/03 12:48:16;;;;;;;;;;;;;;;10.36;79.83;102168.88;5084152;28;20394;-87
2023/01/03 12:50:51;;;;;;;;;;;;;;;10.38;79.98;102175.13;5103693;28;19920;-87
2023/01/03 12:53:28;;;;;;;;;;;;;;;10.43;79.08;102167.66;5075044;28;19932;-86
2023/01/03 12:56:00;;;;;;;;;;;;;;;10.47;78.16;102169.69;5086048;28;19924;-87
2023/01/03 12:58:28;;;;;;;;;;;;;;;10.44;79.36;102177.31;5058091;28;20435;-86
2023/01/03 13:01:03;;;;;;;;;;;;;;;10.53;77.91;102178.00;5069306;28;19920;-86
2023/01/03 13:03:29;;;;;;;;;;;;;;;10.46;78.19;102175.72;5078349;28;19920;-88
2023/01/03 13:05:56;;;;;;;;;;;;;;;10.43;78.67;102178.09;5078864;28;19924;-87
2023/01/03 13:08:30;;;;;;;;;;;;;;;10.41;80.05;102182.28;5086453;28;20013;-86
2023/01/03 13:10:57;;;;;;;;;;;;;;;10.38;79.74;102174.22;5079316;28;20388;-86
2023/01/03 13:13:23;;;;;;;;;;;;;;;10.36;80.28;102181.03;5062733;28;20018;-87
2023/01/03 13:15:48;;;;;;;;;;;;;;;10.34;80.72;102174.78;5050168;28;20789;-87
2023/01/03 13:18:20;;;;;;;;;;;;;;;10.37;79.85;102175.00;5090185;28;20363;-86
2023/01/03 13:20:46;;;;;;;;;;;;;;;10.40;80.72;102175.25;5085134;28;20392;-86
2023/01/03 13:23:30;;;;;;;;;;;;;;;10.40;80.99;102175.25;5107287;28;19920;-86
2023/01/03 13:26:05;;;;;;;;;;;;;;;10.42;79.13;102173.69;5091796;28;19923;-86
2023/01/03 13:28:34;;;;;;;;;;;;;;;10.46;79.50;102164.38;5078163;28;20329;-86
2023/01/03 13:31:17;;;;;;;;;;;;;;;10.50;78.28;102159.50;5091622;28;19920;-85
2023/01/03 13:33:53;;;;;;;;;;;;;;;10.50;79.82;102166.44;5075620;28;19927;-86
2023/01/03 13:36:18;;;;;;;;;;;;;;;10.49;79.67;102167.22;5082133;28;20365;-86
2023/01/03 13:38:44;;;;;;;;;;;;;;;10.47;79.70;102169.69;5090600;28;20343;-86
2023/01/03 13:41:28;;;;;;;;;;;;;;;10.46;80.37;102180.97;5096939;28;19920;-86
2023/01/03 13:43:54;;;;;;;;;;;;;;;10.49;80.98;102175.06;5075118;28;19928;-86
2023/01/03 13:46:27;;;;;;;;;;;;;;;10.51;80.03;102169.16;5099686;28;19924;-86
2023/01/03 13:48:56;;;;;;;;;;;;;;;10.50;79.86;102176.88;5105299;28;19916;-86
2023/01/03 13:51:21;;;;;;;;;;;;;;;10.56;79.65;102179.94;5082247;28;19924;-86